« Back
NWS Peachtree City, Ga » Text Product » ATL Terminal Aerodrome Forecast


Printer-friendly Version
Current Version              Previous Versions:   1  2  3  4  5  6  7  8  9  

Terminal Aerodrome Forecast

380
FTUS42 KFFC 251900 AAA
TAFATL
TAF AMD
KATL 251944Z 2520/2624 35008KT P6SM SKC
     FM260200 31004KT P6SM FEW025
     FM261300 33008KT P6SM FEW250
     FM261800 32006KT P6SM SKC=



USA.gov is the U.S. government's official web portal to all federal, state and local government web resources and services.